• Join FlightAware (Why Join?)
  • Login
  • US Flag 
10:32AM EDT


 

Airport Tracker/Info


-or-


 

Live Flight TrackerFlight Track Log ✈ DAL6034 ✈ 23-Apr-2013 ✈ KMHT - KLGA

Flight Track Log - Related Links

Times and Time Zones

All times are in EDT time to prevent confusion due to time zone crossing. See the DAL6034 flight status page for this flight to view local times or setup timezone preferences in your user account.

Time Position Orientation Groundspeed Altitude Reporting Facility
EDT Latitude Longitude Course Direction KTS MPH feet Rate Location/Type
06:28PM 42.9500 -71.4333 232° Southwest 149 171 1,300  Level KA90
06:29PM 43.0064 -71.4208 North 170 196 4,500 2,460 Climbing Boston Center
06:30PM 43.0342 -71.4969 297° West 211 243 6,800 2,700 Climbing Boston Center
06:31PM 42.6773 -71.8454 236° Southwest  Level FlightAware Approximate
06:31PM 43.0664 -71.6017 293° West 258 297 9,900  Level Boston Center
06:32PM 42.6175 -71.9488 231° Southwest  Level FlightAware Approximate
06:32PM 43.0961 -71.6922 294° West 284 327 10,100  Level Boston Center
06:33PM 42.5564 -72.0509 232° Southwest  Level FlightAware Approximate
06:33PM 43.1364 -71.8142 294° West 310 357 12,000  Level Boston Center
06:34PM 43.1661 -71.9192 291° West 324 373 14,300 2,400 Climbing Boston Center
06:35PM 43.1125 -72.0219 234° Southwest 292 336 16,900 1,740 Climbing Boston Center
06:36PM 43.0500 -72.0708 210° Southwest 292 336 17,800 540 Climbing Boston Center
06:37PM 42.9522 -72.1394 207° Southwest 324 373 18,000 60 Climbing Boston Center
06:38PM 42.8836 -72.1908 209° Southwest 324 373 18,000  Level Boston Center
06:39PM 42.7961 -72.2533 208° Southwest 324 373 18,000  Level Boston Center
06:40PM 42.7275 -72.3072 210° Southwest 324 373 18,000  Level Boston Center
06:41PM 42.6483 -72.3639 208° Southwest 324 373 18,000  Level Boston Center
06:42PM 42.5714 -72.4289 212° Southwest 329 379 18,000 -300 Level Boston Center
06:43PM 42.5089 -72.5133 225° Southwest 323 372 17,400 -540 Descending Boston Center
06:44PM 42.4442 -72.5947 223° Southwest 318 366 17,000 -240 Descending Boston Center
06:45PM 42.3731 -72.6844 223° Southwest 318 366 17,000  Level Boston Center
06:46PM 42.3125 -72.7631 224° Southwest 318 366 17,000  Level Boston Center
06:47PM 42.2497 -72.8467 225° Southwest 311 358 17,000  Level Boston Center
06:48PM 42.1889 -72.9275 225° Southwest 311 358 17,000  Level Boston Center
06:49PM 42.1258 -73.0083 224° Southwest 317 365 17,000  Level Boston Center
06:50PM 42.0631 -73.0917 225° Southwest 317 365 17,000  Level Boston Center
06:51PM 41.9872 -73.1886 224° Southwest 317 365 17,000  Level Boston Center
06:52PM 41.9369 -73.2522 223° Southwest 299 344 17,000  Level Boston Center
06:53PM 41.8781 -73.3267 223° Southwest 279 321 17,000  Level Boston Center
06:54PM 41.8233 -73.3956 223° Southwest 273 314 17,000 -120 Level Boston Center
06:55PM 41.7789 -73.4589 227° Southwest 268 308 16,800 -720 Descending Boston Center
06:56PM 41.7694 -73.5869 264° West 259 298 15,500 -840 Descending Boston Center
06:57PM 41.7619 -73.6953 265° West 292 336 15,000 -300 Descending Boston Center
06:58PM 41.7525 -73.7981 263° West 303 349 15,000  Level Boston Center
06:59PM 41.7447 -73.9203 265° West 309 356 15,000  Level Boston Center
07:00PM 41.7081 -74.0000 238° Southwest 295 339 15,000 -720 Level Boston Center
07:02PM 41.5667 -73.9833 175° South 300 345 13,300 -1,500 Descending New York TRACON
07:03PM 41.5000 -73.9333 151° Southeast 292 336 11,300 -2,040 Descending New York TRACON
07:04PM 41.4333 -73.8833 151° Southeast 287 330 9,300 -1,980 Descending New York TRACON
07:05PM 41.3667 -73.8167 143° Southeast 275 316 7,400 -1,980 Descending New York TRACON
07:06PM 41.3000 -73.7667 151° Southeast 264 304 5,400 -1,680 Descending New York TRACON
07:07PM 41.2500 -73.7167 143° Southeast 250 288 4,100 -720 Descending New York TRACON
07:08PM 41.1833 -73.6667 151° Southeast 253 291 4,000 -60 Descending New York TRACON
07:09PM 41.1333 -73.6167 143° Southeast 261 300 4,000  Level New York TRACON
07:10PM 41.0500 -73.6500 197° South 271 312 4,000  Level New York TRACON
07:11PM 41.0000 -73.6833 207° Southwest 265 305 4,000  Level New York TRACON
07:12PM 40.9667 -73.7667 242° Southwest 268 308 4,000  Level New York TRACON
07:13PM 40.9333 -73.8667 246° West 266 306 4,000  Level New York TRACON
07:14PM 40.8833 -73.9167 217° Southwest 267 307 4,000  Level New York TRACON
07:15PM 40.8167 -73.9667 210° Southwest 253 291 4,000 -60 Level New York TRACON
07:16PM 40.7500 -74.0000 201° Southwest 237 273 3,900 -540 Descending New York TRACON
07:17PM 40.7000 -74.0333 207° Southwest 232 267 3,000 -480 Descending New York TRACON
07:18PM 40.6500 -74.0833 217° Southwest 210 242 3,000  Level New York TRACON